createdAt,value
2022-10-22T00:00:39.392Z,81.20
2022-10-22T00:01:39.361Z,88.20
2022-10-22T00:02:39.399Z,85.90
2022-10-22T00:03:39.351Z,79.30
2022-10-22T00:04:39.374Z,86.70
2022-10-22T00:05:39.343Z,79.60
2022-10-22T00:06:39.312Z,88.20
2022-10-22T00:07:39.630Z,79.20
2022-10-22T00:08:39.343Z,80.70
2022-10-22T00:09:39.284Z,83.10
2022-10-22T00:10:39.281Z,76.10
2022-10-22T00:11:39.255Z,78.80
2022-10-22T00:12:39.244Z,91.10
2022-10-22T00:13:39.276Z,87.50
2022-10-22T00:14:39.223Z,80.90
2022-10-22T00:15:39.244Z,79.30
2022-10-22T00:16:39.206Z,85.50
2022-10-22T00:17:39.528Z,82.00
2022-10-22T00:18:39.189Z,81.80
2022-10-22T00:19:39.178Z,76.80
2022-10-22T00:20:39.177Z,76.40
2022-10-22T00:21:39.169Z,83.40
2022-10-22T00:22:39.205Z,78.50
2022-10-22T00:23:39.139Z,81.00
2022-10-22T00:24:39.117Z,72.60
2022-10-22T00:25:39.132Z,85.60
2022-10-22T00:26:39.089Z,79.10
2022-10-22T00:27:39.513Z,77.40
2022-10-22T00:28:39.075Z,74.70
2022-10-22T00:29:39.074Z,72.80
2022-10-22T00:30:39.081Z,72.20
2022-10-22T00:31:39.063Z,79.20
2022-10-22T00:32:39.248Z,82.60
2022-10-22T00:33:39.025Z,82.60
2022-10-22T00:34:39.013Z,82.80
2022-10-22T00:35:39.033Z,87.30
2022-10-22T00:36:38.991Z,82.10
2022-10-22T00:37:38.985Z,76.10
2022-10-22T00:38:38.964Z,80.20
2022-10-22T00:39:38.964Z,75.90
2022-10-22T00:40:38.972Z,75.80
2022-10-22T00:41:38.945Z,75.50
2022-10-22T00:42:39.430Z,86.90
2022-10-22T00:43:38.996Z,84.30
2022-10-22T00:44:38.906Z,85.70
2022-10-22T00:45:38.926Z,84.00
2022-10-22T00:46:38.886Z,83.60
2022-10-22T00:47:38.878Z,86.70
2022-10-22T00:48:38.867Z,81.90
2022-10-22T00:49:38.876Z,87.90
2022-10-22T00:50:38.859Z,84.60
2022-10-22T00:51:38.838Z,83.80
2022-10-22T00:52:39.090Z,82.00
2022-10-22T00:53:38.819Z,84.90
2022-10-22T00:54:38.810Z,87.60
2022-10-22T00:55:38.812Z,92.30
2022-10-22T00:56:38.780Z,79.00
2022-10-22T00:57:38.781Z,82.10
2022-10-22T00:58:38.772Z,85.70
2022-10-22T00:59:38.752Z,81.20
2022-10-22T01:00:38.816Z,86.40
2022-10-22T01:01:38.731Z,87.30
2022-10-22T01:02:39.083Z,85.60
2022-10-22T01:03:38.717Z,81.80
2022-10-22T01:04:38.704Z,84.30
2022-10-22T01:05:38.712Z,79.70
2022-10-22T01:06:38.674Z,78.20
2022-10-22T01:07:38.666Z,81.00
2022-10-22T01:08:38.684Z,81.90
2022-10-22T01:09:38.648Z,78.00
2022-10-22T01:10:38.645Z,85.00
2022-10-22T01:11:38.625Z,78.70
2022-10-22T01:12:39.042Z,77.50
2022-10-22T01:13:38.604Z,85.10
2022-10-22T01:14:38.591Z,78.10
2022-10-22T01:15:38.598Z,80.40
2022-10-22T01:16:38.571Z,82.40
2022-10-22T01:17:38.890Z,80.20
2022-10-22T01:18:38.548Z,75.50
2022-10-22T01:19:38.539Z,84.20
2022-10-22T01:20:38.548Z,90.00
2022-10-22T01:21:38.519Z,82.30
2022-10-22T01:22:38.509Z,93.20
2022-10-22T01:23:38.500Z,86.10
2022-10-22T01:24:38.482Z,86.20
2022-10-22T01:25:38.482Z,87.30
2022-10-22T01:26:38.482Z,82.50
2022-10-22T01:27:39.037Z,75.60
2022-10-22T01:28:38.443Z,82.20
2022-10-22T01:29:38.441Z,81.50
2022-10-22T01:30:38.422Z,75.10
2022-10-22T01:31:38.434Z,85.70
2022-10-22T01:32:38.403Z,82.30
2022-10-22T01:33:38.395Z,79.70
2022-10-22T01:34:38.374Z,81.70
2022-10-22T01:35:38.383Z,80.70
2022-10-22T01:36:38.376Z,74.60
2022-10-22T01:37:38.677Z,73.00
2022-10-22T01:38:38.339Z,71.30
2022-10-22T01:39:38.325Z,83.10
2022-10-22T01:40:38.317Z,76.60
2022-10-22T01:41:38.324Z,81.70
2022-10-22T01:42:38.296Z,74.30
2022-10-22T01:43:38.306Z,73.70
2022-10-22T01:44:38.281Z,72.30
2022-10-22T01:45:38.265Z,81.60
2022-10-22T01:46:38.277Z,79.10
2022-10-22T01:47:38.559Z,82.90
2022-10-22T01:48:38.251Z,68.70
2022-10-22T01:49:38.220Z,71.50
2022-10-22T01:50:38.214Z,70.50
2022-10-22T01:51:38.219Z,71.70
2022-10-22T01:52:38.192Z,73.20
2022-10-22T01:53:38.239Z,73.10
2022-10-22T01:54:38.179Z,72.40
2022-10-22T01:55:38.161Z,73.30
2022-10-22T01:56:38.170Z,72.20
2022-10-22T01:57:38.513Z,79.40
2022-10-22T01:58:38.132Z,70.90
2022-10-22T01:59:38.114Z,72.00
2022-10-22T02:00:38.127Z,77.40
2022-10-22T02:01:38.115Z,71.20
2022-10-22T02:02:38.149Z,70.30
2022-10-22T02:03:38.076Z,81.00
2022-10-22T02:04:38.066Z,80.80
2022-10-22T02:05:38.054Z,86.70
2022-10-22T02:06:38.064Z,83.60
2022-10-22T02:07:38.376Z,90.30
2022-10-22T02:08:38.068Z,82.60
2022-10-22T02:09:38.007Z,81.80
2022-10-22T02:10:38.005Z,84.30
2022-10-22T02:11:38.008Z,86.70
2022-10-22T02:12:38.185Z,84.80
2022-10-22T02:13:37.969Z,86.60
2022-10-22T02:14:37.967Z,85.40
2022-10-22T02:15:37.949Z,86.00
2022-10-22T02:16:37.961Z,88.60
2022-10-22T02:17:37.920Z,84.60
2022-10-22T02:18:39.466Z,91.00
2022-10-22T02:19:37.913Z,91.00
2022-10-22T02:20:37.894Z,101.40
2022-10-22T02:21:37.903Z,99.60
2022-10-22T02:22:38.222Z,90.50
2022-10-22T02:23:37.867Z,94.60
2022-10-22T02:24:37.859Z,83.40
2022-10-22T02:25:37.842Z,85.80
2022-10-22T02:26:37.853Z,90.50
2022-10-22T02:27:37.823Z,95.50
2022-10-22T02:28:37.814Z,79.60
2022-10-22T02:29:37.801Z,80.40
2022-10-22T02:30:37.804Z,79.20
2022-10-22T02:31:37.814Z,83.10
2022-10-22T02:32:37.936Z,71.90
2022-10-22T02:33:37.762Z,87.70
2022-10-22T02:34:37.756Z,80.10
2022-10-22T02:35:37.738Z,83.50
2022-10-22T02:36:37.747Z,87.00
2022-10-22T02:37:37.718Z,85.40
2022-10-22T02:38:37.715Z,89.50
2022-10-22T02:39:37.707Z,92.60
2022-10-22T02:40:37.688Z,90.40
2022-10-22T02:41:37.689Z,94.10
2022-10-22T02:42:37.995Z,87.90
2022-10-22T02:43:37.658Z,97.20
2022-10-22T02:44:37.648Z,95.60
2022-10-22T02:45:37.646Z,96.60
2022-10-22T02:46:37.642Z,100.80
2022-10-22T02:47:37.611Z,104.80
2022-10-22T02:48:37.618Z,104.90
2022-10-22T02:49:37.591Z,100.20
2022-10-22T02:50:37.584Z,94.90
2022-10-22T02:51:37.582Z,93.80
2022-10-22T02:52:37.787Z,91.70
2022-10-22T02:53:37.553Z,98.80
2022-10-22T02:54:37.541Z,92.80
2022-10-22T02:55:37.526Z,92.20
2022-10-22T02:56:37.546Z,85.10
2022-10-22T02:57:37.733Z,82.10
2022-10-22T02:58:37.496Z,88.90
2022-10-22T02:59:37.487Z,88.70
2022-10-22T03:00:37.515Z,91.50
2022-10-22T03:01:37.485Z,93.60
2022-10-22T03:02:37.456Z,97.00
2022-10-22T03:03:37.446Z,87.00
2022-10-22T03:04:37.437Z,95.30
2022-10-22T03:05:37.418Z,81.10
2022-10-22T03:06:37.428Z,81.00
2022-10-22T03:07:37.664Z,83.30
2022-10-22T03:08:37.412Z,92.80
2022-10-22T03:09:37.380Z,85.40
2022-10-22T03:10:37.379Z,91.30
2022-10-22T03:11:37.369Z,97.10
2022-10-22T03:12:37.349Z,95.10
2022-10-22T03:13:37.332Z,86.10
2022-10-22T03:14:37.330Z,79.00
2022-10-22T03:15:37.311Z,83.80
2022-10-22T03:16:37.323Z,78.70
2022-10-22T03:17:37.480Z,78.90
2022-10-22T03:18:37.288Z,81.10
2022-10-22T03:19:37.273Z,69.00
2022-10-22T03:20:37.272Z,71.90
2022-10-22T03:21:37.262Z,76.10
2022-10-22T03:22:37.243Z,73.00
2022-10-22T03:23:37.224Z,81.10
2022-10-22T03:24:37.223Z,84.70
2022-10-22T03:25:37.214Z,78.00
2022-10-22T03:26:37.215Z,87.50
2022-10-22T03:27:37.441Z,97.20
2022-10-22T03:28:37.186Z,99.90
2022-10-22T03:29:37.166Z,106.70
2022-10-22T03:30:37.156Z,105.80
2022-10-22T03:31:37.183Z,103.30
2022-10-22T03:32:37.139Z,107.70
2022-10-22T03:33:37.117Z,113.50
2022-10-22T03:34:37.119Z,109.00
2022-10-22T03:35:37.117Z,113.50
2022-10-22T03:36:37.118Z,114.50
2022-10-22T03:37:37.287Z,108.00
2022-10-22T03:38:37.079Z,107.80
2022-10-22T03:39:37.062Z,109.50
2022-10-22T03:40:37.058Z,113.80
2022-10-22T03:41:37.049Z,107.50
2022-10-22T03:42:37.030Z,103.70
2022-10-22T03:43:37.018Z,109.70
2022-10-22T03:44:37.012Z,106.40
2022-10-22T03:46:37.011Z,105.50
2022-10-22T03:47:37.003Z,107.00
2022-10-22T03:48:36.973Z,104.30
2022-10-22T03:49:36.952Z,105.80
2022-10-22T03:50:36.943Z,104.40
2022-10-22T03:51:36.946Z,95.90
2022-10-22T03:52:36.933Z,94.50
2022-10-22T03:53:36.905Z,102.30
2022-10-22T03:55:36.887Z,89.80
2022-10-22T03:56:36.912Z,98.00
2022-10-22T03:57:37.074Z,101.60
2022-10-22T03:58:36.865Z,99.10
2022-10-22T03:59:36.846Z,92.00
2022-10-22T04:00:36.847Z,93.00
2022-10-22T04:01:36.931Z,94.80
2022-10-22T04:02:36.820Z,101.60
2022-10-22T04:03:36.805Z,89.60
2022-10-22T04:04:36.795Z,84.70
2022-10-22T04:05:36.779Z,96.30
2022-10-22T04:06:36.789Z,97.40
2022-10-22T04:07:36.758Z,90.30
2022-10-22T04:08:36.827Z,89.70
2022-10-22T04:09:36.750Z,93.40
2022-10-22T04:10:36.748Z,83.80
2022-10-22T04:11:36.731Z,87.40
2022-10-22T04:12:36.711Z,88.60
2022-10-22T04:13:36.693Z,86.70
2022-10-22T04:14:36.695Z,77.30
2022-10-22T04:15:36.761Z,83.40
2022-10-22T04:16:36.692Z,88.20
2022-10-22T04:17:36.658Z,88.90
2022-10-22T04:18:36.655Z,81.70
2022-10-22T04:19:36.623Z,85.20
2022-10-22T04:20:36.624Z,78.80
2022-10-22T04:21:36.627Z,78.90
2022-10-22T04:22:36.603Z,77.30
2022-10-22T04:23:36.585Z,81.00
2022-10-22T04:24:36.686Z,78.10
2022-10-22T04:25:36.568Z,81.50
2022-10-22T04:26:36.562Z,77.80
2022-10-22T04:27:36.564Z,83.00
2022-10-22T04:28:36.536Z,79.20
2022-10-22T04:29:36.545Z,78.20
2022-10-22T04:30:36.523Z,81.30
2022-10-22T04:31:36.509Z,83.10
2022-10-22T04:32:36.508Z,83.90
2022-10-22T04:33:36.547Z,83.60
2022-10-22T04:34:36.478Z,84.40
2022-10-22T04:35:36.477Z,85.20
2022-10-22T04:36:36.449Z,82.20
2022-10-22T04:37:36.570Z,81.20
2022-10-22T04:38:36.458Z,80.70
2022-10-22T04:39:36.422Z,85.50
2022-10-22T04:40:36.413Z,92.60
2022-10-22T04:41:36.404Z,86.10
2022-10-22T04:42:36.421Z,86.40
2022-10-22T04:43:36.380Z,85.70
2022-10-22T04:44:36.371Z,88.50
2022-10-22T04:45:36.362Z,84.60
2022-10-22T04:46:36.363Z,81.30
2022-10-22T04:47:36.347Z,85.10
2022-10-22T04:48:36.326Z,89.30
2022-10-22T04:49:36.312Z,92.30
2022-10-22T04:50:36.311Z,94.60
2022-10-22T04:51:36.305Z,89.80
2022-10-22T04:52:36.286Z,88.50
2022-10-22T04:53:36.268Z,93.70
2022-10-22T04:54:36.262Z,89.60
2022-10-22T04:55:36.255Z,90.70
2022-10-22T04:56:36.268Z,88.70
2022-10-22T04:57:36.226Z,90.30
2022-10-22T04:58:36.224Z,93.10
2022-10-22T04:59:36.206Z,96.30
2022-10-22T05:00:36.269Z,96.00
2022-10-22T05:01:39.877Z,91.10
2022-10-22T05:02:37.178Z,92.90
2022-10-22T05:03:36.160Z,100.20
2022-10-22T05:04:36.156Z,96.70
2022-10-22T05:05:36.140Z,98.40
2022-10-22T05:06:36.153Z,89.80
2022-10-22T05:07:36.121Z,96.10
2022-10-22T05:08:36.156Z,93.60
2022-10-22T05:09:36.101Z,90.60
2022-10-22T05:10:36.093Z,90.60
2022-10-22T05:11:36.091Z,93.50
2022-10-22T05:12:36.069Z,100.80
2022-10-22T05:13:36.052Z,94.80
2022-10-22T05:14:36.055Z,94.40
2022-10-22T05:15:36.033Z,94.00
2022-10-22T05:16:36.103Z,91.90
2022-10-22T05:17:36.013Z,87.10
2022-10-22T05:18:36.012Z,94.70
2022-10-22T05:19:35.996Z,91.80
2022-10-22T05:20:35.985Z,92.60
2022-10-22T05:21:35.996Z,86.60
2022-10-22T05:22:35.965Z,88.60
2022-10-22T05:23:36.151Z,92.90
2022-10-22T05:24:35.956Z,91.20
2022-10-22T05:25:35.928Z,98.90
2022-10-22T05:26:35.940Z,94.30
2022-10-22T05:27:35.907Z,93.80
2022-10-22T05:28:35.906Z,96.20
2022-10-22T05:29:35.887Z,91.00
2022-10-22T05:30:35.877Z,95.80
2022-10-22T05:31:35.885Z,92.70
2022-10-22T05:32:35.857Z,95.90
2022-10-22T05:33:35.846Z,89.20
2022-10-22T05:34:35.838Z,95.40
2022-10-22T05:35:35.830Z,88.30
2022-10-22T05:36:35.831Z,93.70
2022-10-22T05:37:35.799Z,95.50
2022-10-22T05:38:35.791Z,91.70
2022-10-22T05:39:35.779Z,90.10
2022-10-22T05:40:35.775Z,97.10
2022-10-22T05:41:35.742Z,92.10
2022-10-22T05:42:35.702Z,97.30
2022-10-22T05:43:35.733Z,96.70
2022-10-22T05:44:35.730Z,97.50
2022-10-22T05:45:35.713Z,94.30
2022-10-22T05:46:35.701Z,105.30
2022-10-22T05:47:35.636Z,102.80
2022-10-22T05:48:35.632Z,106.10
2022-10-22T05:49:35.674Z,101.70
2022-10-22T05:50:35.634Z,101.50
2022-10-22T05:51:35.655Z,103.30
2022-10-22T05:52:35.586Z,101.10
2022-10-22T05:53:35.574Z,102.60
2022-10-22T05:54:35.571Z,89.80
2022-10-22T05:55:35.557Z,105.70
2022-10-22T05:56:35.566Z,101.60
2022-10-22T05:57:35.536Z,102.80
2022-10-22T05:58:35.528Z,106.00
2022-10-22T05:59:35.517Z,99.10
2022-10-22T06:00:35.500Z,109.10
2022-10-22T06:01:35.639Z,104.40
2022-10-22T06:02:35.544Z,99.80
2022-10-22T06:03:35.470Z,104.30
2022-10-22T06:04:35.460Z,104.60
2022-10-22T06:05:35.451Z,105.90
2022-10-22T06:06:35.450Z,104.00
2022-10-22T06:07:35.430Z,101.90
2022-10-22T06:08:35.450Z,104.10
2022-10-22T06:09:35.409Z,106.80
2022-10-22T06:10:35.399Z,103.10
2022-10-22T06:11:35.539Z,125.40
2022-10-22T06:12:35.376Z,115.50
2022-10-22T06:13:35.366Z,119.00
2022-10-22T06:14:35.359Z,110.50
2022-10-22T06:15:35.344Z,117.70
2022-10-22T06:16:35.345Z,121.40
2022-10-22T06:17:35.324Z,123.50
2022-10-22T06:18:35.315Z,126.70
2022-10-22T06:19:35.318Z,131.50
2022-10-22T06:20:35.288Z,131.80
2022-10-22T06:21:35.297Z,129.20
2022-10-22T06:22:35.269Z,139.40
2022-10-22T06:23:35.264Z,132.10
2022-10-22T06:24:35.245Z,137.90
2022-10-22T06:25:35.237Z,132.50
2022-10-22T06:26:35.238Z,140.90
2022-10-22T06:27:35.221Z,136.80
2022-10-22T06:28:35.219Z,140.30
2022-10-22T06:29:35.191Z,134.10
2022-10-22T06:30:35.182Z,138.10
2022-10-22T06:31:35.219Z,141.70
2022-10-22T06:32:35.160Z,139.80
2022-10-22T06:33:35.171Z,139.30
2022-10-22T06:34:35.137Z,145.60
2022-10-22T06:35:35.131Z,149.40
2022-10-22T06:36:35.491Z,156.30
2022-10-22T06:37:35.112Z,149.60
2022-10-22T06:38:35.107Z,150.80
2022-10-22T06:39:35.092Z,142.50
2022-10-22T06:40:35.073Z,141.60
2022-10-22T06:41:35.085Z,142.00
2022-10-22T06:42:35.054Z,141.30
2022-10-22T06:43:35.048Z,137.60
2022-10-22T06:44:35.038Z,126.80
2022-10-22T06:45:35.025Z,125.00
2022-10-22T06:46:35.048Z,129.80
2022-10-22T06:47:35.004Z,125.70
2022-10-22T06:48:34.989Z,119.30
2022-10-22T06:49:34.983Z,109.40
2022-10-22T06:50:34.983Z,108.70
2022-10-22T06:51:34.978Z,112.10
2022-10-22T06:52:34.960Z,102.40
2022-10-22T06:53:34.948Z,101.50
2022-10-22T06:54:34.926Z,103.30
2022-10-22T06:55:34.928Z,111.50
2022-10-22T06:56:34.919Z,103.00
2022-10-22T06:57:34.899Z,97.30
2022-10-22T06:58:34.886Z,102.20
2022-10-22T06:59:34.889Z,96.00
2022-10-22T07:00:34.863Z,98.70
2022-10-22T07:01:34.932Z,96.80
2022-10-22T07:02:34.839Z,85.00
2022-10-22T07:03:34.840Z,85.00
2022-10-22T07:04:34.821Z,81.10
2022-10-22T07:05:34.822Z,69.00
2022-10-22T07:06:34.832Z,71.60
2022-10-22T07:07:34.791Z,68.10
2022-10-22T07:08:34.817Z,64.50
2022-10-22T07:09:34.775Z,65.40
2022-10-22T07:10:34.754Z,57.60
2022-10-22T07:11:34.775Z,60.30
2022-10-22T07:12:34.735Z,55.40
2022-10-22T07:13:34.725Z,50.90
2022-10-22T07:14:34.716Z,48.60
2022-10-22T07:15:34.707Z,52.40
2022-10-22T07:16:34.706Z,55.40
2022-10-22T07:17:34.729Z,53.80
2022-10-22T07:18:34.677Z,48.10
2022-10-22T07:19:34.673Z,45.60
2022-10-22T07:20:34.657Z,44.70
2022-10-22T07:21:34.668Z,40.40
2022-10-22T07:22:34.634Z,44.10
2022-10-22T07:23:34.638Z,39.80
2022-10-22T07:24:34.618Z,36.50
2022-10-22T07:25:34.599Z,38.30
2022-10-22T07:26:34.627Z,27.50
2022-10-22T07:27:34.581Z,23.80
2022-10-22T07:28:34.570Z,24.40
2022-10-22T07:29:34.562Z,24.30
2022-10-22T07:30:34.551Z,26.60
2022-10-22T07:31:34.562Z,28.20
2022-10-22T07:32:34.532Z,23.00
2022-10-22T07:33:34.521Z,26.50
2022-10-22T07:34:34.510Z,21.10
2022-10-22T07:35:34.518Z,15.60
2022-10-22T07:36:34.534Z,19.80
2022-10-22T07:37:34.484Z,16.30
2022-10-22T07:38:34.464Z,18.60
2022-10-22T07:39:34.456Z,17.10
2022-10-22T07:40:34.467Z,16.00
2022-10-22T07:41:34.471Z,23.70
2022-10-22T07:42:34.468Z,20.60
2022-10-22T07:43:34.415Z,21.20
2022-10-22T07:44:34.408Z,15.70
2022-10-22T07:45:34.413Z,16.00
2022-10-22T07:46:34.398Z,14.90
2022-10-22T07:47:34.389Z,12.50
2022-10-22T07:48:34.359Z,16.00
2022-10-22T07:49:34.383Z,16.70
2022-10-22T07:50:34.431Z,15.50
2022-10-22T07:51:34.368Z,14.90
2022-10-22T07:52:34.319Z,16.70
2022-10-22T07:53:34.310Z,13.20
2022-10-22T07:54:34.308Z,14.90
2022-10-22T07:55:34.320Z,13.70
2022-10-22T07:56:34.271Z,7.80
2022-10-22T07:57:34.291Z,14.20
2022-10-22T07:58:34.260Z,12.00
2022-10-22T07:59:34.251Z,17.80
2022-10-22T08:00:34.232Z,18.20
2022-10-22T08:01:34.257Z,16.30
2022-10-22T08:02:34.232Z,10.60
2022-10-22T08:03:34.218Z,18.10
2022-10-22T08:04:34.235Z,14.60
2022-10-22T08:05:34.185Z,13.10
2022-10-22T08:06:34.185Z,12.60
2022-10-22T08:07:34.176Z,15.90
2022-10-22T08:08:34.202Z,11.90
2022-10-22T08:09:34.165Z,13.70
2022-10-22T08:10:34.134Z,15.20
2022-10-22T08:11:34.146Z,13.80
2022-10-22T08:12:34.115Z,13.20
2022-10-22T08:13:34.111Z,16.30
2022-10-22T08:14:34.089Z,21.40
2022-10-22T08:15:34.135Z,18.10
2022-10-22T08:16:34.090Z,12.80
2022-10-22T08:17:34.067Z,13.10
2022-10-22T08:18:34.059Z,16.20
2022-10-22T08:19:34.039Z,15.90
2022-10-22T08:20:34.029Z,13.70
2022-10-22T08:21:34.049Z,14.40
2022-10-22T08:22:34.010Z,16.60
2022-10-22T08:23:34.001Z,12.70
2022-10-22T08:24:33.982Z,15.50
2022-10-22T08:25:33.984Z,16.30
2022-10-22T08:26:33.986Z,17.60
2022-10-22T08:27:33.971Z,13.80
2022-10-22T08:28:33.953Z,16.90
2022-10-22T08:29:33.943Z,12.50
2022-10-22T08:30:33.935Z,16.30
2022-10-22T08:31:33.945Z,16.00
2022-10-22T08:32:33.905Z,12.60
2022-10-22T08:33:33.901Z,16.10
2022-10-22T08:34:33.885Z,12.10
2022-10-22T08:35:33.880Z,18.80
2022-10-22T08:36:33.884Z,13.60
2022-10-22T08:37:33.863Z,15.40
2022-10-22T08:38:33.843Z,16.60
2022-10-22T08:39:33.837Z,17.20
2022-10-22T08:40:33.818Z,17.50
2022-10-22T08:41:33.840Z,23.30
2022-10-22T08:42:33.797Z,16.10
2022-10-22T08:43:33.795Z,15.10
2022-10-22T08:44:33.780Z,15.50
2022-10-22T08:45:33.768Z,15.90
2022-10-22T08:46:33.778Z,15.40
2022-10-22T08:47:33.758Z,21.20
2022-10-22T08:48:33.739Z,14.60
2022-10-22T08:49:36.028Z,14.00
2022-10-22T08:50:33.718Z,18.00
2022-10-22T08:51:33.730Z,18.50
2022-10-22T08:52:33.698Z,21.40
2022-10-22T08:53:33.689Z,14.60
2022-10-22T08:54:33.673Z,13.70
2022-10-22T08:55:36.615Z,16.40
2022-10-22T08:56:33.662Z,23.50
2022-10-22T08:57:33.663Z,14.00
2022-10-22T08:58:33.629Z,17.40
2022-10-22T08:59:33.632Z,19.10
2022-10-22T09:00:33.614Z,15.90
2022-10-22T09:01:33.623Z,18.20
2022-10-22T09:02:33.596Z,16.10
2022-10-22T09:03:33.583Z,17.20
2022-10-22T09:04:33.565Z,13.80
2022-10-22T09:05:33.566Z,12.80
2022-10-22T09:06:33.569Z,17.20
2022-10-22T09:07:33.544Z,23.10
2022-10-22T09:08:33.609Z,19.60
2022-10-22T09:09:33.517Z,15.30
2022-10-22T09:10:33.506Z,15.20
2022-10-22T09:11:33.499Z,18.70
2022-10-22T09:12:33.508Z,14.10
2022-10-22T09:13:33.486Z,15.90
2022-10-22T09:14:33.459Z,17.70
2022-10-22T09:15:33.458Z,16.70
2022-10-22T09:16:33.439Z,16.70
2022-10-22T09:17:33.451Z,19.00
2022-10-22T09:18:33.419Z,16.00
2022-10-22T09:19:33.417Z,13.10
2022-10-22T09:20:33.402Z,13.20
2022-10-22T09:21:33.391Z,21.60
2022-10-22T09:23:33.373Z,17.80
2022-10-22T09:24:33.363Z,14.80
2022-10-22T09:25:33.351Z,14.10
2022-10-22T09:26:33.344Z,16.20
2022-10-22T09:27:33.350Z,17.80
2022-10-22T09:28:33.313Z,19.20
2022-10-22T09:29:33.314Z,19.60
2022-10-22T09:30:33.295Z,19.90
2022-10-22T09:31:33.304Z,17.10
2022-10-22T09:32:33.297Z,18.50
2022-10-22T09:33:33.273Z,16.60
2022-10-22T09:34:33.246Z,18.30
2022-10-22T09:35:33.244Z,20.50
2022-10-22T09:36:33.238Z,17.70
2022-10-22T09:37:33.237Z,18.60
2022-10-22T09:38:33.215Z,22.10
2022-10-22T09:39:33.200Z,15.90
2022-10-22T09:40:33.189Z,20.20
2022-10-22T09:41:33.188Z,16.50
2022-10-22T09:42:33.189Z,18.60
2022-10-22T09:43:33.166Z,22.10
2022-10-22T09:44:33.141Z,21.30
2022-10-22T09:45:33.141Z,22.90
2022-10-22T09:46:33.129Z,16.00
2022-10-22T09:47:42.875Z,17.30
2022-10-22T09:48:34.092Z,20.50
2022-10-22T09:49:33.092Z,20.50
2022-10-22T09:50:33.086Z,23.50
2022-10-22T09:51:33.071Z,21.80
2022-10-22T09:52:33.075Z,17.50
2022-10-22T09:53:33.051Z,19.50
2022-10-22T09:54:33.038Z,14.70
2022-10-22T09:55:33.026Z,17.90
2022-10-22T09:56:33.013Z,18.10
2022-10-22T09:57:33.036Z,18.90
2022-10-22T09:58:32.987Z,20.30
2022-10-22T09:59:32.986Z,18.10
2022-10-22T10:00:32.968Z,16.50
2022-10-22T10:01:32.984Z,14.60
2022-10-22T10:02:38.094Z,17.40
2022-10-22T10:03:33.941Z,13.30
2022-10-22T10:04:32.929Z,15.10
2022-10-22T10:05:32.918Z,20.90
2022-10-22T10:06:32.906Z,18.20
2022-10-22T10:07:32.919Z,21.00
2022-10-22T10:08:32.987Z,15.30
2022-10-22T10:09:32.887Z,17.60
2022-10-22T10:10:32.870Z,23.70
2022-10-22T10:11:32.857Z,17.80
2022-10-22T10:12:32.896Z,14.50
2022-10-22T10:13:32.830Z,21.60
2022-10-22T10:14:32.832Z,15.00
2022-10-22T10:15:32.812Z,17.40
2022-10-22T10:16:32.802Z,16.70
2022-10-22T10:17:32.813Z,21.20
2022-10-22T10:18:32.785Z,15.10
2022-10-22T10:19:32.765Z,17.30
2022-10-22T10:20:32.762Z,17.40
2022-10-22T10:21:32.756Z,19.00
2022-10-22T10:22:32.764Z,17.70
2022-10-22T10:23:32.725Z,17.10
2022-10-22T10:24:32.716Z,17.30
2022-10-22T10:25:32.707Z,21.00
2022-10-22T10:26:32.737Z,18.90
2022-10-22T10:27:32.707Z,14.40
2022-10-22T10:28:32.677Z,15.40
2022-10-22T10:29:32.699Z,19.40
2022-10-22T10:30:32.665Z,17.20
2022-10-22T10:31:32.638Z,21.70
2022-10-22T10:32:32.652Z,19.00
2022-10-22T10:33:32.618Z,16.50
2022-10-22T10:34:32.617Z,17.90
2022-10-22T10:35:32.632Z,16.50
2022-10-22T10:36:32.596Z,20.40
2022-10-22T10:37:32.599Z,16.80
2022-10-22T10:38:32.579Z,18.10
2022-10-22T10:39:32.563Z,23.30
2022-10-22T10:40:32.551Z,17.70
2022-10-22T10:41:32.532Z,11.90
2022-10-22T10:42:32.551Z,12.60
2022-10-22T10:43:32.523Z,17.00
2022-10-22T10:44:32.511Z,15.10
2022-10-22T10:45:32.492Z,14.10
2022-10-22T10:46:34.894Z,15.70
2022-10-22T10:47:32.496Z,20.00
2022-10-22T10:48:32.471Z,19.40
2022-10-22T10:49:32.458Z,15.60
2022-10-22T10:50:32.446Z,12.60
2022-10-22T10:51:32.427Z,14.10
2022-10-22T10:52:32.444Z,10.20
2022-10-22T10:53:32.415Z,17.10
2022-10-22T10:54:32.447Z,13.10
2022-10-22T10:55:32.390Z,17.70
2022-10-22T10:56:34.454Z,16.80
2022-10-22T10:57:32.368Z,15.20
2022-10-22T10:58:32.362Z,11.90
2022-10-22T10:59:32.341Z,16.30
2022-10-22T11:00:32.338Z,20.10
2022-10-22T11:01:32.433Z,14.50
2022-10-22T11:02:32.321Z,14.90
2022-10-22T11:03:32.310Z,20.00
2022-10-22T11:04:32.300Z,16.00
2022-10-22T11:05:32.279Z,13.00
2022-10-22T11:06:32.303Z,21.20
2022-10-22T11:07:35.427Z,14.40
2022-10-22T11:08:32.306Z,16.10
2022-10-22T11:09:32.242Z,16.60
2022-10-22T11:10:32.234Z,11.90
2022-10-22T11:11:32.238Z,16.40
2022-10-22T11:12:32.236Z,14.80
2022-10-22T11:13:32.204Z,17.60
2022-10-22T11:14:32.186Z,9.90
2022-10-22T11:15:32.186Z,13.70
2022-10-22T11:16:32.185Z,11.50
2022-10-22T11:17:32.148Z,17.30
2022-10-22T11:18:32.148Z,14.80
2022-10-22T11:19:56.685Z,20.60
2022-10-22T11:20:33.119Z,11.70
2022-10-22T11:21:32.148Z,17.70
2022-10-22T11:22:32.101Z,13.10
2022-10-22T11:23:32.090Z,17.10
2022-10-22T11:24:32.080Z,13.40
2022-10-22T11:25:32.072Z,20.20
2022-10-22T11:26:32.090Z,15.80
2022-10-22T11:27:32.050Z,13.00
2022-10-22T11:28:32.045Z,19.70
2022-10-22T11:29:32.950Z,16.20
2022-10-22T11:30:32.022Z,16.30
2022-10-22T11:31:32.031Z,15.70
2022-10-22T11:32:32.003Z,14.90
2022-10-22T11:33:31.986Z,15.70
2022-10-22T11:34:34.262Z,18.20
2022-10-22T11:35:31.966Z,12.80
2022-10-22T11:37:31.936Z,20.10
2022-10-22T11:38:34.194Z,12.30
2022-10-22T11:39:31.924Z,13.60
2022-10-22T11:40:31.935Z,23.60
2022-10-22T11:41:31.912Z,15.40
2022-10-22T11:42:31.897Z,16.50
2022-10-22T11:43:31.909Z,16.20
2022-10-22T11:44:31.878Z,17.40
2022-10-22T11:45:31.895Z,16.30
2022-10-22T11:46:31.855Z,14.80
2022-10-22T11:47:31.837Z,16.10
2022-10-22T11:48:31.830Z,13.70
2022-10-22T11:49:31.819Z,15.40
2022-10-22T11:50:31.831Z,15.10
2022-10-22T11:51:31.793Z,14.20
2022-10-22T11:52:31.794Z,14.90
2022-10-22T11:53:31.774Z,19.70
2022-10-22T11:54:31.771Z,14.10
2022-10-22T11:55:31.773Z,11.70
2022-10-22T11:56:31.745Z,16.30
2022-10-22T11:57:31.746Z,18.10
2022-10-22T11:58:31.726Z,18.40
2022-10-22T11:59:31.715Z,15.60
2022-10-22T12:00:31.724Z,15.70
2022-10-22T12:01:31.771Z,17.70
2022-10-22T12:02:31.686Z,21.90
2022-10-22T12:03:31.675Z,14.50
2022-10-22T12:04:31.755Z,18.40
2022-10-22T12:05:31.669Z,18.20
2022-10-22T12:06:31.650Z,19.60
2022-10-22T12:07:31.629Z,15.50
2022-10-22T12:08:31.634Z,17.70
2022-10-22T12:09:31.601Z,17.10
2022-10-22T12:10:31.610Z,15.80
2022-10-22T12:11:31.611Z,15.30
2022-10-22T12:12:31.582Z,15.10
2022-10-22T12:13:31.569Z,15.80
2022-10-22T12:14:31.553Z,13.20
2022-10-22T12:15:31.543Z,15.00
2022-10-22T12:16:54.783Z,16.80
2022-10-22T12:17:32.522Z,16.10
2022-10-22T12:18:31.515Z,15.20
2022-10-22T12:19:31.504Z,16.70
2022-10-22T12:20:31.494Z,18.20
2022-10-22T12:21:31.496Z,18.60
2022-10-22T12:22:31.473Z,16.40
2022-10-22T12:23:31.458Z,18.80
2022-10-22T12:24:31.456Z,15.60
2022-10-22T12:25:35.821Z,16.70
2022-10-22T12:27:31.416Z,20.60
2022-10-22T12:28:31.409Z,14.70
2022-10-22T12:29:31.397Z,13.90
2022-10-22T12:30:31.388Z,12.60
2022-10-22T12:31:31.390Z,17.80
2022-10-22T12:32:31.369Z,15.40
2022-10-22T12:33:31.351Z,23.00
2022-10-22T12:34:31.349Z,18.10
2022-10-22T12:35:31.321Z,14.30
2022-10-22T12:36:31.339Z,12.10
2022-10-22T12:37:31.304Z,18.40
2022-10-22T12:38:31.293Z,17.40
2022-10-22T12:39:31.282Z,15.60
2022-10-22T12:40:31.274Z,16.60
2022-10-22T12:41:31.282Z,19.70
2022-10-22T12:42:31.272Z,13.70
2022-10-22T12:43:31.281Z,11.80
2022-10-22T12:44:31.235Z,13.00
2022-10-22T12:45:31.242Z,14.70
2022-10-22T12:46:31.239Z,14.60
2022-10-22T12:47:31.204Z,16.10
2022-10-22T12:48:31.193Z,14.60
2022-10-22T12:49:31.177Z,12.20
2022-10-22T12:50:31.171Z,12.80
2022-10-22T12:52:31.147Z,13.20
2022-10-22T12:53:31.136Z,20.90
2022-10-22T12:54:31.126Z,15.50
2022-10-22T12:55:31.109Z,13.10